WetterOnline ( https://www.wetteronline.de )

Wetter aktuell Plaus

Aktuelles Wetter: Reschenpass (1461m)

6-stündlich | Neueste Meldungen
Ortszeit Temperatur Wetter
Di, 22.10. 8:00 8.6° C Nebel
Di, 22.10. 2:00 8.8° C Nebel
Mo, 21.10. 20:00 9.0° C Nebel
Mo, 21.10. 14:00 8.4° C leichter Regen
Mo, 21.10. 8:00 8.8° C bedeckt
Mo, 21.10. 2:00 9.0° C bedeckt
So, 20.10. 20:00 10.2° C bedeckt
So, 20.10. 14:00 7.6° C Nebel
Ortszeit Temperatur Wetter
Di, 22.10. 11:00 9.0° C leicht bewölkt
Di, 22.10. 10:55 9° C leicht bewölkt
Di, 22.10. 10:00 8.8° C bedeckt
Di, 22.10. 9:55 9° C bedeckt
Di, 22.10. 9:00 8.4° C Nebel
Di, 22.10. 8:55 8° C Nebel
Di, 22.10. 8:00 8.6° C Nebel
Di, 22.10. 7:55 9° C Nebel
Di, 22.10. 7:00 8.6° C Nebel
Ortszeit Relative Feuchte Sichtweite
Di, 22.10. 8:00 83% 0.8 km
Di, 22.10. 2:00 81% 0.8 km
Mo, 21.10. 20:00 82% 0.8 km
Mo, 21.10. 14:00 82% 0.8 km
Mo, 21.10. 8:00 88% 10 km
Mo, 21.10. 2:00 88% 10 km
So, 20.10. 20:00 88% 10 km
So, 20.10. 14:00 88% <100 m
Ortszeit Relative Feuchte Sichtweite
Di, 22.10. 11:00 82% 10 km
Di, 22.10. 10:55 81% >10 km
Di, 22.10. 10:00 82% 3.0 km
Di, 22.10. 9:55 81% 3.0 km
Di, 22.10. 9:00 83% 0.8 km
Di, 22.10. 8:55 87% 0.8 km
Di, 22.10. 8:00 83% 0.8 km
Di, 22.10. 7:55 81% 0.8 km
Di, 22.10. 7:00 83% 0.8 km
Ortszeit Niederschlagsmenge Niederschlagsart
Di, 22.10. 8:00 0.0 l/m2 in 12 Std. Nebel
Di, 22.10. 2:00 0.0 l/m2 in 6 Std. Nebel
Mo, 21.10. 20:00 6 l/m2 in 12 Std. Regen, Nebel
Mo, 21.10. 14:00 5 l/m2 in 6 Std. Regen, Nebel
Mo, 21.10. 8:00 1 l/m2 in 12 Std. -
Mo, 21.10. 2:00 1 l/m2 in 6 Std. Regen
So, 20.10. 20:00 0.0 l/m2 in 12 Std. Nebel
So, 20.10. 14:00 0.0 l/m2 in 6 Std. Nebel
Ortszeit Niederschlagsmenge Niederschlagsart
Di, 22.10. 11:00 keine Meldung -
Di, 22.10. 10:55 keine Meldung -
Di, 22.10. 10:00 keine Meldung -
Di, 22.10. 9:55 keine Meldung -
Di, 22.10. 9:00 keine Meldung -
Di, 22.10. 8:55 keine Meldung -
Di, 22.10. 8:00 keine Meldung -
Di, 22.10. 7:55 keine Meldung -
Di, 22.10. 7:00 keine Meldung -
Ortszeit Stärke Spitze Richtung
km/h Bft. km/h Grad Sektor
Di, 22.10. 8:00 6 1 - 200° S
Di, 22.10. 2:00 9 2 - 160° S
Mo, 21.10. 20:00 9 2 - 140° SO
Mo, 21.10. 14:00 9 2 - 160° S
Mo, 21.10. 8:00 9 2 - 170° S
Mo, 21.10. 2:00 17 3 - 180° S
So, 20.10. 20:00 11 2 - 170° S
So, 20.10. 14:00 15 3 - 180° S
Ortszeit Stärke Spitze Richtung
km/h Bft. km/h Grad Sektor
Di, 22.10. 11:00 7 2 - 180° S
Di, 22.10. 10:55 7 2 - 180° S
Di, 22.10. 10:00 7 2 - 200° S
Di, 22.10. 9:55 7 2 - 200° S
Di, 22.10. 9:00 7 2 - 170° S
Di, 22.10. 8:55 7 2 - 170° S
Di, 22.10. 8:00 6 1 - 200° S
Di, 22.10. 7:55 6 1 - 200° S
Di, 22.10. 7:00 6 1 - 210° SW
Ortszeit Untergrenze Bedeckung Gattung
total tief tief mittel hoch
Di, 22.10. 8:00 150 m 8/8 8/8 St - -
Di, 22.10. 2:00 150 m 8/8 8/8 St - -
Mo, 21.10. 20:00 150 m 8/8 8/8 St - -
Mo, 21.10. 14:00 90 m 8/8 8/8 St - -
Mo, 21.10. 8:00 450 m 8/8 8/8 Sc - -
Mo, 21.10. 2:00 600 m 8/8 8/8 Sc - -
So, 20.10. 20:00 900 m 8/8 8/8 Sc - -
So, 20.10. 14:00 - 8/8 - - - -
Ortszeit Bedeckungsgrad in Achtel und Wolkenuntergrenze
Di, 22.10. 11:00 4(900m)
Di, 22.10. 10:55 3-4(900m)
Di, 22.10. 10:00 8(240m)
Di, 22.10. 9:55 8(240m)
Di, 22.10. 9:00 8(90m)
Di, 22.10. 8:55 8(90m)
Di, 22.10. 8:00 8(150m)
Di, 22.10. 7:55 8(150m)
Di, 22.10. 7:00 8(150m)
Ortszeit Stationsdruck (hPa) Tendenz (hPa in 3 Std.)
Di, 22.10. 8:00 863 + 0,5
Di, 22.10. 2:00 862 + 0,7
Mo, 21.10. 20:00 860 + 0,2
Mo, 21.10. 14:00 860 + 1,2
Mo, 21.10. 8:00 857 + 1,2
Mo, 21.10. 2:00 856 + 1,0
So, 20.10. 20:00 854 0,0
So, 20.10. 14:00 854 + 0,2
Ortszeit Stationsdruck (hPa) Tendenz (hPa in 3 Std.)
Di, 22.10. 11:00 863 0,0
Di, 22.10. 10:55 - keine Meldung
Di, 22.10. 10:00 863 0,0
Di, 22.10. 9:55 - keine Meldung
Di, 22.10. 9:00 863 + 0,1
Di, 22.10. 8:55 - keine Meldung
Di, 22.10. 8:00 863 + 0,5
Di, 22.10. 7:55 - keine Meldung
Di, 22.10. 7:00 863 + 0,5
Ortszeit Schneehöhe (cm)
Di, 22.10. 8:00 0
Di, 22.10. 2:00 -
Mo, 21.10. 20:00 -
Mo, 21.10. 14:00 -
Mo, 21.10. 8:00 0
Mo, 21.10. 2:00 -
So, 20.10. 20:00 -
So, 20.10. 14:00 -
Ortszeit Schneehöhe (cm)
Di, 22.10. 11:00 -
Di, 22.10. 10:55 -
Di, 22.10. 10:00 -
Di, 22.10. 9:55 -
Di, 22.10. 9:00 -
Di, 22.10. 8:55 -
Di, 22.10. 8:00 0
Di, 22.10. 7:55 -
Di, 22.10. 7:00 -
Link zu dieser Seite / Seite empfehlen

Das Wetter in ...